createdAt,value
2018-03-02T00:01:37.409Z,34.72
2018-03-02T00:04:08.485Z,33.75
2018-03-02T00:06:39.446Z,37.42
2018-03-02T00:09:10.476Z,39.65
2018-03-02T00:11:41.480Z,38.22
2018-03-02T00:14:12.510Z,34.15
2018-03-02T00:16:43.529Z,35.05
2018-03-02T00:19:14.549Z,40.40
2018-03-02T00:21:45.546Z,35.58
2018-03-02T00:24:16.557Z,44.75
2018-03-02T00:26:47.536Z,35.75
2018-03-02T00:29:18.529Z,35.70
2018-03-02T00:31:49.553Z,35.88
2018-03-02T00:34:20.540Z,34.55
2018-03-02T00:36:51.541Z,36.72
2018-03-02T00:39:22.511Z,38.13
2018-03-02T00:41:53.509Z,41.22
2018-03-02T00:44:24.524Z,34.40
2018-03-02T00:46:55.522Z,38.00
2018-03-02T00:49:26.525Z,39.95
2018-03-02T00:51:57.567Z,38.15
2018-03-02T00:54:28.567Z,42.75
2018-03-02T00:57:00.534Z,40.25
2018-03-02T00:59:31.506Z,37.92
2018-03-02T01:02:02.535Z,41.28
2018-03-02T01:04:33.519Z,40.95
2018-03-02T01:07:04.538Z,35.65
2018-03-02T01:09:35.541Z,37.15
2018-03-02T01:12:06.633Z,39.38
2018-03-02T01:14:37.629Z,37.15
2018-03-02T01:17:08.645Z,32.97
2018-03-02T01:19:39.628Z,39.75
2018-03-02T01:22:10.637Z,35.45
2018-03-02T01:24:41.686Z,40.50
2018-03-02T01:27:12.657Z,37.08
2018-03-02T01:29:43.695Z,35.20
2018-03-02T01:32:14.687Z,40.85
2018-03-02T01:34:45.723Z,35.58
2018-03-02T01:37:16.697Z,35.72
2018-03-02T01:39:47.695Z,38.60
2018-03-02T01:42:18.693Z,34.05
2018-03-02T01:44:49.647Z,33.20
2018-03-02T01:47:20.656Z,37.07
2018-03-02T01:49:51.628Z,39.17
2018-03-02T01:52:22.651Z,36.58
2018-03-02T01:54:54.053Z,35.28
2018-03-02T01:57:25.038Z,38.97
2018-03-02T01:59:56.007Z,38.53
2018-03-02T02:02:27.030Z,39.83
2018-03-02T02:04:58.020Z,36.33
2018-03-02T02:07:28.972Z,40.80
2018-03-02T02:09:59.990Z,38.37
2018-03-02T02:12:31.014Z,39.30
2018-03-02T02:15:02.040Z,41.22
2018-03-02T02:17:33.035Z,32.03
2018-03-02T02:20:03.993Z,36.63
2018-03-02T02:22:35.009Z,36.33
2018-03-02T02:25:06.009Z,35.65
2018-03-02T02:27:37.014Z,37.92
2018-03-02T02:30:08.033Z,38.78
2018-03-02T02:32:38.991Z,34.63
2018-03-02T02:35:09.934Z,36.67
2018-03-02T02:37:40.948Z,37.97
2018-03-02T02:40:11.945Z,36.80
2018-03-02T02:42:42.965Z,39.95
2018-03-02T02:45:13.966Z,41.00
2018-03-02T02:47:44.951Z,42.08
2018-03-02T02:50:16.002Z,39.85
2018-03-02T02:52:47.055Z,39.85
2018-03-02T02:55:18.063Z,42.55
2018-03-02T02:57:49.068Z,42.03
2018-03-02T03:00:20.033Z,38.35
2018-03-02T03:02:51.054Z,32.88
2018-03-02T03:05:22.044Z,39.28
2018-03-02T03:07:53.054Z,40.40
2018-03-02T03:10:24.025Z,40.97
2018-03-02T03:12:55.027Z,40.28
2018-03-02T03:15:26.021Z,40.60
2018-03-02T03:17:56.975Z,41.58
2018-03-02T03:20:27.989Z,42.40
2018-03-02T03:22:58.938Z,38.05
2018-03-02T03:25:29.936Z,39.67
2018-03-02T03:28:00.934Z,39.78
2018-03-02T03:30:31.952Z,41.40
2018-03-02T03:33:02.941Z,39.42
2018-03-02T03:35:33.958Z,37.08
2018-03-02T03:38:04.995Z,37.80
2018-03-02T03:40:35.976Z,38.83
2018-03-02T03:43:06.975Z,37.00
2018-03-02T03:45:37.943Z,38.67
2018-03-02T03:48:08.929Z,41.17
2018-03-02T03:50:39.901Z,44.95
2018-03-02T03:53:10.923Z,38.00
2018-03-02T03:55:41.935Z,35.10
2018-03-02T03:58:12.944Z,38.03
2018-03-02T04:00:43.923Z,38.83
2018-03-02T04:03:14.902Z,37.65
2018-03-02T04:05:45.896Z,37.70
2018-03-02T04:08:16.895Z,40.20
2018-03-02T04:10:47.878Z,41.53
2018-03-02T04:13:18.899Z,40.25
2018-03-02T04:15:49.894Z,40.40
2018-03-02T04:18:20.910Z,40.78
2018-03-02T04:20:51.907Z,36.88
2018-03-02T04:23:22.942Z,35.58
2018-03-02T04:25:53.898Z,40.15
2018-03-02T04:28:24.940Z,42.75
2018-03-02T04:30:55.887Z,44.28
2018-03-02T04:33:26.825Z,41.30
2018-03-02T04:35:57.841Z,40.50
2018-03-02T04:38:28.803Z,40.42
2018-03-02T04:40:59.817Z,43.57
2018-03-02T04:43:30.802Z,43.67
2018-03-02T04:46:01.896Z,45.25
2018-03-02T04:48:32.838Z,41.97
2018-03-02T04:51:03.829Z,40.60
2018-03-02T04:53:34.844Z,40.50
2018-03-02T04:56:05.804Z,48.92
2018-03-02T04:58:36.789Z,40.80
2018-03-02T05:01:07.820Z,47.72
2018-03-02T05:03:38.804Z,39.83
2018-03-02T05:06:09.818Z,42.20
2018-03-02T05:08:40.795Z,46.20
2018-03-02T05:11:11.799Z,41.75
2018-03-02T05:13:42.776Z,41.85
2018-03-02T05:16:13.801Z,42.55
2018-03-02T05:18:44.812Z,44.47
2018-03-02T05:21:15.769Z,42.92
2018-03-02T05:23:46.776Z,42.57
2018-03-02T05:26:17.777Z,42.70
2018-03-02T05:28:48.758Z,39.40
2018-03-02T05:31:19.739Z,49.97
2018-03-02T05:33:50.777Z,43.67
2018-03-02T05:36:21.747Z,48.63
2018-03-02T05:38:52.784Z,42.88
2018-03-02T05:41:23.966Z,44.05
2018-03-02T05:43:55.016Z,38.83
2018-03-02T05:46:26.036Z,43.15
2018-03-02T05:48:57.000Z,38.85
2018-03-02T05:51:27.981Z,42.90
2018-03-02T05:53:58.984Z,45.58
2018-03-02T05:56:30.019Z,45.33
2018-03-02T05:59:00.997Z,45.00
2018-03-02T06:01:31.989Z,44.65
2018-03-02T06:04:03.042Z,47.10
2018-03-02T06:06:34.041Z,45.20
2018-03-02T06:09:05.070Z,40.67
2018-03-02T06:11:36.064Z,48.63
2018-03-02T06:14:07.068Z,48.10
2018-03-02T06:16:38.044Z,48.17
2018-03-02T06:19:09.028Z,45.42
2018-03-02T06:21:40.014Z,48.47
2018-03-02T06:24:10.975Z,41.78
2018-03-02T06:26:41.951Z,45.07
2018-03-02T06:29:12.987Z,49.00
2018-03-02T06:31:43.968Z,47.38
2018-03-02T06:34:14.992Z,43.70
2018-03-02T06:36:46.020Z,42.95
2018-03-02T06:39:16.987Z,45.30
2018-03-02T06:41:47.984Z,46.70
2018-03-02T06:44:18.975Z,46.90
2018-03-02T06:46:50.007Z,47.40
2018-03-02T06:49:20.976Z,48.10
2018-03-02T06:51:51.957Z,40.17
2018-03-02T06:54:22.994Z,45.38
2018-03-02T06:56:53.990Z,45.45
2018-03-02T06:59:25.050Z,43.17
2018-03-02T07:01:56.069Z,45.67
2018-03-02T07:04:27.075Z,42.45
2018-03-02T07:06:58.104Z,48.13
2018-03-02T07:09:29.109Z,47.90
2018-03-02T07:12:00.062Z,48.50
2018-03-02T07:14:31.065Z,43.93
2018-03-02T07:17:02.079Z,42.10
2018-03-02T07:19:33.042Z,41.88
2018-03-02T07:22:04.028Z,40.17
2018-03-02T07:24:35.014Z,43.78
2018-03-02T07:27:06.008Z,43.78
2018-03-02T07:29:37.024Z,41.47
2018-03-02T07:32:08.034Z,42.30
2018-03-02T07:34:39.023Z,42.85
2018-03-02T07:37:10.011Z,37.47
2018-03-02T07:39:41.065Z,38.88
2018-03-02T07:42:12.029Z,42.55
2018-03-02T07:44:43.029Z,40.43
2018-03-02T07:47:14.017Z,42.53
2018-03-02T07:49:45.060Z,40.03
2018-03-02T07:52:16.075Z,40.97
2018-03-02T07:54:47.077Z,31.77
2018-03-02T07:57:18.096Z,41.60
2018-03-02T07:59:49.113Z,44.08
2018-03-02T08:02:20.114Z,42.40
2018-03-02T08:04:51.093Z,40.95
2018-03-02T08:07:22.101Z,42.87
2018-03-02T08:09:53.067Z,41.05
2018-03-02T08:12:24.095Z,39.40
2018-03-02T08:14:55.138Z,39.60
2018-03-02T08:17:26.137Z,40.37
2018-03-02T08:19:57.187Z,39.30
2018-03-02T08:22:28.208Z,34.57
2018-03-02T08:24:59.203Z,39.20
2018-03-02T08:27:30.346Z,38.93
2018-03-02T08:30:01.336Z,37.90
2018-03-02T08:32:32.309Z,36.87
2018-03-02T08:35:03.338Z,37.30
2018-03-02T08:37:34.310Z,38.57
2018-03-02T08:40:05.369Z,36.03
2018-03-02T08:42:36.359Z,38.60
2018-03-02T08:45:07.336Z,40.63
2018-03-02T08:47:38.298Z,40.20
2018-03-02T08:50:09.324Z,40.03
2018-03-02T08:52:40.291Z,37.50
2018-03-02T08:55:11.294Z,38.87
2018-03-02T08:57:42.287Z,40.00
2018-03-02T09:00:13.292Z,38.60
2018-03-02T09:02:44.279Z,39.23
2018-03-02T09:05:15.254Z,38.60
2018-03-02T09:07:46.249Z,39.13
2018-03-02T09:10:17.266Z,39.60
2018-03-02T09:12:48.230Z,38.83
2018-03-02T09:15:19.200Z,37.03
2018-03-02T09:17:50.243Z,40.47
2018-03-02T09:20:21.255Z,41.20
2018-03-02T09:22:52.287Z,38.17
2018-03-02T09:25:23.291Z,39.13
2018-03-02T09:27:54.309Z,39.13
2018-03-02T09:30:25.252Z,38.97
2018-03-02T09:32:56.261Z,39.40
2018-03-02T09:35:27.257Z,37.77
2018-03-02T09:37:58.249Z,40.10
2018-03-02T09:40:29.198Z,40.50
2018-03-02T09:43:00.185Z,39.67
2018-03-02T09:45:31.164Z,39.03
2018-03-02T09:48:02.125Z,40.70
2018-03-02T09:50:33.215Z,43.17
2018-03-02T09:53:04.221Z,43.17
2018-03-02T09:55:35.266Z,40.20
2018-03-02T09:58:06.255Z,45.63
2018-03-02T10:00:37.273Z,42.67
2018-03-02T10:03:08.211Z,40.93
2018-03-02T10:05:39.200Z,40.73
2018-03-02T10:08:10.184Z,42.33
2018-03-02T10:10:41.183Z,42.37
2018-03-02T10:13:12.165Z,40.20
2018-03-02T10:15:43.198Z,41.97
2018-03-02T10:18:14.187Z,43.37
2018-03-02T10:20:45.201Z,40.20
2018-03-02T10:23:16.199Z,41.53
2018-03-02T10:25:47.159Z,39.73
2018-03-02T10:28:18.163Z,39.03
2018-03-02T10:30:49.173Z,40.30
2018-03-02T10:33:20.155Z,40.20
2018-03-02T10:35:51.121Z,39.90
2018-03-02T10:38:22.115Z,40.37
2018-03-02T10:40:53.164Z,41.33
2018-03-02T10:43:24.234Z,40.03
2018-03-02T10:45:55.219Z,40.57
2018-03-02T10:48:26.225Z,40.10
2018-03-02T10:50:57.232Z,41.57
2018-03-02T10:53:28.196Z,40.70
2018-03-02T10:55:59.219Z,41.20
2018-03-02T10:58:30.206Z,40.67
2018-03-02T11:01:07.311Z,42.57
2018-03-02T11:03:45.475Z,41.17
2018-03-02T11:06:16.502Z,39.20
2018-03-02T11:08:47.535Z,39.30
2018-03-02T11:11:18.545Z,39.57
2018-03-02T11:13:49.541Z,41.37
2018-03-02T11:16:20.548Z,39.73
2018-03-02T11:18:51.573Z,38.57
2018-03-02T11:21:22.544Z,37.63
2018-03-02T11:23:53.551Z,38.10
2018-03-02T11:26:24.582Z,39.33
2018-03-02T11:28:55.585Z,37.90
2018-03-02T11:31:26.540Z,36.70
2018-03-02T11:33:57.517Z,38.03
2018-03-02T11:36:28.525Z,41.63
2018-03-02T11:38:59.545Z,36.57
2018-03-02T11:41:30.600Z,37.67
2018-03-02T11:44:01.611Z,39.80
2018-03-02T11:46:32.617Z,38.83
2018-03-02T11:49:03.615Z,34.13
2018-03-02T11:51:34.615Z,37.43
2018-03-02T11:54:05.588Z,38.50
2018-03-02T11:56:36.624Z,40.43
2018-03-02T11:59:07.581Z,39.65
2018-03-02T12:01:38.793Z,36.73
2018-03-02T12:04:09.821Z,36.78
2018-03-02T12:06:40.799Z,37.65
2018-03-02T12:09:11.795Z,38.60
2018-03-02T12:11:42.826Z,37.60
2018-03-02T12:14:13.857Z,36.28
2018-03-02T12:16:44.879Z,41.03
2018-03-02T12:19:15.864Z,36.20
2018-03-02T12:21:46.827Z,40.57
2018-03-02T12:24:17.842Z,41.43
2018-03-02T12:26:48.844Z,37.03
2018-03-02T12:29:19.900Z,35.83
2018-03-02T12:31:50.870Z,39.67
2018-03-02T12:34:21.839Z,35.43
2018-03-02T12:36:52.856Z,36.07
2018-03-02T12:39:23.857Z,37.37
2018-03-02T12:41:54.816Z,44.03
2018-03-02T12:44:25.865Z,41.37
2018-03-02T12:46:56.823Z,37.37
2018-03-02T12:49:27.832Z,36.37
2018-03-02T12:51:58.873Z,35.63
2018-03-02T12:54:29.909Z,38.10
2018-03-02T12:57:00.935Z,34.17
2018-03-02T12:59:31.959Z,33.70
2018-03-02T13:02:02.993Z,35.87
2018-03-02T13:04:33.985Z,34.53
2018-03-02T13:07:04.931Z,38.77
2018-03-02T13:09:35.929Z,31.67
2018-03-02T13:12:06.939Z,36.90
2018-03-02T13:14:37.964Z,32.33
2018-03-02T13:17:08.978Z,38.27
2018-03-02T13:19:40.038Z,38.33
2018-03-02T13:22:23.314Z,34.60
2018-03-02T13:24:54.333Z,35.63
2018-03-02T13:27:37.576Z,32.60
2018-03-02T13:30:08.605Z,31.50
2018-03-02T13:32:39.644Z,33.73
2018-03-02T13:35:10.701Z,31.87
2018-03-02T13:37:41.713Z,37.10
2018-03-02T13:40:25.103Z,33.43
2018-03-02T13:42:56.128Z,35.43
2018-03-02T13:45:27.210Z,36.83
2018-03-02T13:51:12.151Z,35.50
2018-03-02T13:53:43.120Z,31.53
2018-03-02T13:56:26.527Z,32.90
2018-03-02T13:58:57.531Z,35.50
2018-03-02T14:01:28.559Z,36.03
2018-03-02T14:04:12.020Z,33.80
2018-03-02T14:06:43.003Z,32.50
2018-03-02T14:09:14.006Z,33.60
2018-03-02T14:11:45.017Z,36.17
2018-03-02T14:14:15.993Z,33.97
2018-03-02T14:16:47.026Z,35.73
2018-03-02T14:19:18.059Z,37.57
2018-03-02T14:21:49.110Z,36.67
2018-03-02T14:24:20.133Z,32.93
2018-03-02T14:26:51.175Z,38.40
2018-03-02T14:29:22.195Z,39.20
2018-03-02T14:31:53.219Z,35.07
2018-03-02T14:34:24.194Z,37.93
2018-03-02T14:36:55.224Z,33.53
2018-03-02T14:39:26.202Z,36.03
2018-03-02T14:41:57.230Z,36.77
2018-03-02T14:44:28.236Z,35.13
2018-03-02T14:46:59.737Z,39.33
2018-03-02T14:49:30.780Z,35.47
2018-03-02T14:52:01.804Z,39.13
2018-03-02T14:54:32.743Z,36.13
2018-03-02T14:57:03.745Z,37.53
2018-03-02T14:59:34.758Z,39.23
2018-03-02T15:02:05.789Z,35.03
2018-03-02T15:04:36.788Z,39.90
2018-03-02T15:07:07.779Z,36.47
2018-03-02T15:09:38.832Z,34.73
2018-03-02T15:12:09.820Z,38.33
2018-03-02T15:14:40.799Z,43.23
2018-03-02T15:17:11.875Z,34.53
2018-03-02T15:19:42.878Z,38.17
2018-03-02T15:22:13.881Z,38.83
2018-03-02T15:24:44.922Z,35.97
2018-03-02T15:27:15.921Z,38.97
2018-03-02T15:29:46.946Z,41.43
2018-03-02T15:32:18.003Z,43.60
2018-03-02T15:34:48.973Z,40.30
2018-03-02T15:37:19.989Z,38.60
2018-03-02T15:39:50.978Z,39.57
2018-03-02T15:42:21.989Z,42.07
2018-03-02T15:44:53.021Z,40.17
2018-03-02T15:47:24.054Z,37.13
2018-03-02T15:49:55.085Z,40.93
2018-03-02T15:52:26.083Z,39.37
2018-03-02T15:54:57.081Z,40.03
2018-03-02T15:57:28.155Z,39.00
2018-03-02T15:59:59.249Z,40.73
2018-03-02T16:02:30.215Z,40.13
2018-03-02T16:05:01.208Z,39.13
2018-03-02T16:07:32.251Z,42.30
2018-03-02T16:10:03.321Z,39.63
2018-03-02T16:12:34.295Z,40.73
2018-03-02T16:15:05.336Z,42.23
2018-03-02T16:17:36.385Z,39.47
2018-03-02T16:20:07.359Z,42.73
2018-03-02T16:22:38.332Z,42.47
2018-03-02T16:25:09.307Z,45.70
2018-03-02T16:27:40.305Z,43.30
2018-03-02T16:30:11.307Z,43.20
2018-03-02T16:32:42.292Z,42.47
2018-03-02T16:35:13.313Z,40.00
2018-03-02T16:37:44.284Z,43.53
2018-03-02T16:40:15.274Z,43.83
2018-03-02T16:42:46.267Z,40.57
2018-03-02T16:45:17.261Z,47.93
2018-03-02T16:47:48.298Z,43.30
2018-03-02T16:50:19.314Z,42.23
2018-03-02T16:52:50.320Z,41.90
2018-03-02T16:55:21.316Z,42.70
2018-03-02T16:57:52.384Z,46.53
2018-03-02T17:00:23.316Z,42.37
2018-03-02T17:02:54.299Z,37.70
2018-03-02T17:05:25.337Z,40.43
2018-03-02T17:07:56.370Z,42.03
2018-03-02T17:10:27.353Z,46.03
2018-03-02T17:12:58.360Z,45.30
2018-03-02T17:15:29.416Z,46.92
2018-03-02T17:18:00.436Z,44.67
2018-03-02T17:20:31.422Z,45.72
2018-03-02T17:23:02.443Z,47.00
2018-03-02T17:25:33.418Z,43.85
2018-03-02T17:28:04.519Z,47.30
2018-03-02T17:30:35.552Z,42.08
2018-03-02T17:33:06.571Z,49.10
2018-03-02T17:35:37.549Z,46.80
2018-03-02T17:38:08.573Z,44.07
2018-03-02T17:40:39.564Z,46.50
2018-03-02T17:43:10.543Z,43.63
2018-03-02T17:45:41.549Z,45.90
2018-03-02T17:48:12.558Z,48.70
2018-03-02T17:50:43.578Z,47.92
2018-03-02T17:53:14.591Z,50.35
2018-03-02T17:55:45.629Z,49.30
2018-03-02T17:58:16.613Z,44.60
2018-03-02T18:00:47.611Z,48.63
2018-03-02T18:03:18.634Z,50.63
2018-03-02T18:05:49.599Z,47.33
2018-03-02T18:08:20.617Z,50.03
2018-03-02T18:10:51.620Z,47.03
2018-03-02T18:13:22.625Z,46.70
2018-03-02T18:15:53.603Z,47.10
2018-03-02T18:18:24.602Z,49.07
2018-03-02T18:20:55.693Z,48.35
2018-03-02T18:23:26.689Z,47.67
2018-03-02T18:25:57.708Z,46.37
2018-03-02T18:28:28.709Z,48.30
2018-03-02T18:30:59.750Z,48.35
2018-03-02T18:33:30.743Z,50.08
2018-03-02T18:36:01.737Z,50.87
2018-03-02T18:38:32.730Z,51.40
2018-03-02T18:41:03.752Z,50.77
2018-03-02T18:43:34.743Z,48.75
2018-03-02T18:46:05.755Z,56.43
2018-03-02T18:48:36.782Z,55.88
2018-03-02T18:51:07.747Z,54.22
2018-03-02T18:53:38.749Z,56.43
2018-03-02T18:56:09.770Z,55.92
2018-03-02T18:58:40.782Z,55.78
2018-03-02T19:01:11.803Z,52.72
2018-03-02T19:03:42.849Z,54.80
2018-03-02T19:06:13.840Z,55.70
2018-03-02T19:08:44.848Z,59.87
2018-03-02T19:11:15.851Z,59.70
2018-03-02T19:13:46.880Z,60.78
2018-03-02T19:16:17.893Z,55.08
2018-03-02T19:18:48.909Z,53.30
2018-03-02T19:21:19.878Z,56.50
2018-03-02T19:23:50.906Z,58.60
2018-03-02T19:26:21.910Z,57.00
2018-03-02T19:28:52.961Z,57.92
2018-03-02T19:31:24.122Z,57.55
2018-03-02T19:33:55.306Z,55.03
2018-03-02T19:36:27.112Z,58.72
2018-03-02T19:38:58.205Z,54.80
2018-03-02T19:41:29.337Z,56.60
2018-03-02T19:44:00.388Z,53.72
2018-03-02T19:46:31.510Z,55.58
2018-03-02T19:49:02.571Z,58.00
2018-03-02T19:51:33.702Z,59.67
2018-03-02T19:54:04.784Z,58.67
2018-03-02T19:56:35.856Z,64.53
2018-03-02T19:59:06.932Z,59.72
2018-03-02T20:01:38.019Z,53.97
2018-03-02T20:04:09.093Z,56.80
2018-03-02T20:06:40.109Z,55.10
2018-03-02T20:09:11.170Z,60.20
2018-03-02T20:11:42.185Z,57.30
2018-03-02T20:14:13.305Z,57.35
2018-03-02T20:16:44.424Z,61.53
2018-03-02T20:19:15.434Z,60.50
2018-03-02T20:21:46.480Z,66.62
2018-03-02T20:24:17.479Z,59.25
2018-03-02T20:26:48.486Z,61.77
2018-03-02T20:29:19.521Z,60.75
2018-03-02T20:31:50.554Z,58.58
2018-03-02T20:34:21.581Z,72.78
2018-03-02T20:36:52.568Z,59.75
2018-03-02T20:39:23.585Z,65.50
2018-03-02T20:41:54.573Z,60.03
2018-03-02T20:44:25.573Z,66.23
2018-03-02T20:46:56.892Z,60.80
2018-03-02T20:49:27.960Z,63.40
2018-03-02T20:51:58.940Z,63.95
2018-03-02T20:54:29.960Z,68.70
2018-03-02T20:57:00.980Z,63.08
2018-03-02T20:59:32.009Z,67.10
2018-03-02T21:02:03.045Z,67.62
2018-03-02T21:04:34.027Z,66.70
2018-03-02T21:07:05.065Z,69.90
2018-03-02T21:09:36.079Z,67.25
2018-03-02T21:12:07.084Z,73.35
2018-03-02T21:14:38.109Z,67.97
2018-03-02T21:17:09.076Z,72.12
2018-03-02T21:19:40.094Z,71.13
2018-03-02T21:22:11.064Z,70.80
2018-03-02T21:24:42.031Z,75.23
2018-03-02T21:27:13.117Z,76.90
2018-03-02T21:29:44.064Z,73.68
2018-03-02T21:32:15.092Z,76.53
2018-03-02T21:34:46.074Z,73.28
2018-03-02T21:37:17.112Z,74.73
2018-03-02T21:39:48.126Z,73.97
2018-03-02T21:42:19.144Z,79.20
2018-03-02T21:44:50.121Z,77.95
2018-03-02T21:47:21.104Z,77.37
2018-03-02T21:49:52.119Z,84.00
2018-03-02T21:52:23.102Z,82.18
2018-03-02T21:54:54.089Z,74.80
2018-03-02T21:57:25.064Z,79.73
2018-03-02T21:59:56.067Z,76.17
2018-03-02T22:02:27.071Z,78.40
2018-03-02T22:04:58.038Z,71.12
2018-03-02T22:07:29.061Z,81.87
2018-03-02T22:10:00.030Z,72.62
2018-03-02T22:12:31.046Z,67.93
2018-03-02T22:15:02.026Z,70.72
2018-03-02T22:17:33.004Z,65.43
2018-03-02T22:20:04.000Z,65.83
2018-03-02T22:22:34.981Z,59.33
2018-03-02T22:25:05.968Z,66.77
2018-03-02T22:27:37.017Z,70.30
2018-03-02T22:30:07.998Z,60.72
2018-03-02T22:32:38.962Z,67.50
2018-03-02T22:35:09.957Z,57.27
2018-03-02T22:37:41.001Z,65.28
2018-03-02T22:40:11.990Z,65.35
2018-03-02T22:42:43.020Z,62.47
2018-03-02T22:45:14.029Z,62.62
2018-03-02T22:47:45.023Z,60.78
2018-03-02T22:50:15.995Z,62.65
2018-03-02T22:52:47.012Z,70.40
2018-03-02T22:55:17.979Z,65.80
2018-03-02T22:57:49.006Z,65.37
2018-03-02T23:00:19.996Z,69.97
2018-03-02T23:02:51.012Z,71.22
2018-03-02T23:05:21.996Z,70.62
2018-03-02T23:07:53.020Z,63.30
2018-03-02T23:10:23.955Z,69.40
2018-03-02T23:12:54.958Z,65.50
2018-03-02T23:15:25.956Z,70.62
2018-03-02T23:17:56.979Z,67.57
2018-03-02T23:20:27.975Z,65.95
2018-03-02T23:22:58.937Z,70.85
2018-03-02T23:25:29.957Z,71.73
2018-03-02T23:28:00.956Z,70.20
2018-03-02T23:30:31.994Z,63.60
2018-03-02T23:33:03.025Z,65.75
2018-03-02T23:35:33.987Z,67.55
2018-03-02T23:38:04.996Z,72.53
2018-03-02T23:40:35.969Z,72.47
2018-03-02T23:43:06.984Z,68.03
2018-03-02T23:45:37.968Z,67.65
2018-03-02T23:48:08.982Z,74.30
2018-03-02T23:50:39.982Z,67.55
2018-03-02T23:53:10.963Z,74.78
2018-03-02T23:55:41.899Z,70.53
2018-03-02T23:58:12.898Z,74.43
